sensor_id;sensor_type;location;lat;lon;timestamp;pressure;altitude;pressure_sealevel;temperature;humidity
71662;BME280;59500;49.588;18.018;2022-07-06T00:02:09;98279.22;;;14.98;84.95
71662;BME280;59500;49.588;18.018;2022-07-06T00:04:35;98280.81;;;14.93;85.04
71662;BME280;59500;49.588;18.018;2022-07-06T00:07:01;98285.03;;;14.87;85.44
71662;BME280;59500;49.588;18.018;2022-07-06T00:09:27;98284.97;;;14.80;84.76
71662;BME280;59500;49.588;18.018;2022-07-06T00:11:53;98282.66;;;14.77;85.10
71662;BME280;59500;49.588;18.018;2022-07-06T00:14:18;98290.88;;;14.76;85.83
71662;BME280;59500;49.588;18.018;2022-07-06T00:16:44;98285.91;;;14.73;85.55
71662;BME280;59500;49.588;18.018;2022-07-06T00:19:10;98283.56;;;14.69;85.57
71662;BME280;59500;49.588;18.018;2022-07-06T00:21:36;98278.44;;;14.68;86.04
71662;BME280;59500;49.588;18.018;2022-07-06T00:24:02;98282.47;;;14.64;85.80
71662;BME280;59500;49.588;18.018;2022-07-06T00:26:28;98283.69;;;14.61;86.28
71662;BME280;59500;49.588;18.018;2022-07-06T00:28:54;98289.38;;;14.58;86.45
71662;BME280;59500;49.588;18.018;2022-07-06T00:31:20;98289.91;;;14.54;85.80
71662;BME280;59500;49.588;18.018;2022-07-06T00:33:45;98285.09;;;14.49;86.34
71662;BME280;59500;49.588;18.018;2022-07-06T00:36:11;98289.97;;;14.45;86.07
71662;BME280;59500;49.588;18.018;2022-07-06T00:38:37;98293.88;;;14.43;86.02
71662;BME280;59500;49.588;18.018;2022-07-06T00:41:03;98285.19;;;14.41;86.56
71662;BME280;59500;49.588;18.018;2022-07-06T00:43:46;98287.59;;;14.36;86.74
71662;BME280;59500;49.588;18.018;2022-07-06T00:46:12;98277.25;;;14.33;86.84
71662;BME280;59500;49.588;18.018;2022-07-06T00:48:38;98281.97;;;14.31;86.72
71662;BME280;59500;49.588;18.018;2022-07-06T00:51:04;98273.44;;;14.27;85.78
71662;BME280;59500;49.588;18.018;2022-07-06T00:53:30;98269.47;;;14.23;86.38
71662;BME280;59500;49.588;18.018;2022-07-06T00:55:56;98267.19;;;14.20;86.65
71662;BME280;59500;49.588;18.018;2022-07-06T00:58:22;98264.03;;;14.16;86.53
71662;BME280;59500;49.588;18.018;2022-07-06T01:00:48;98266.25;;;14.13;86.49
71662;BME280;59500;49.588;18.018;2022-07-06T01:03:14;98262.72;;;14.12;86.87
71662;BME280;59500;49.588;18.018;2022-07-06T01:05:40;98264.13;;;14.08;86.61
71662;BME280;59500;49.588;18.018;2022-07-06T01:08:06;98266.13;;;14.06;86.70
71662;BME280;59500;49.588;18.018;2022-07-06T01:10:32;98274.50;;;14.03;86.99
71662;BME280;59500;49.588;18.018;2022-07-06T01:12:58;98266.84;;;14.00;86.35
71662;BME280;59500;49.588;18.018;2022-07-06T01:15:25;98269.03;;;13.96;86.97
71662;BME280;59500;49.588;18.018;2022-07-06T01:17:51;98278.44;;;13.92;86.60
71662;BME280;59500;49.588;18.018;2022-07-06T01:20:19;98273.47;;;13.89;87.08
71662;BME280;59500;49.588;18.018;2022-07-06T01:22:47;98279.81;;;13.88;86.29
71662;BME280;59500;49.588;18.018;2022-07-06T01:25:14;98280.66;;;13.89;86.52
71662;BME280;59500;49.588;18.018;2022-07-06T01:27:41;98285.16;;;13.88;86.80
71662;BME280;59500;49.588;18.018;2022-07-06T01:30:11;98286.19;;;13.87;86.87
71662;BME280;59500;49.588;18.018;2022-07-06T01:32:38;98289.50;;;13.89;86.74
71662;BME280;59500;49.588;18.018;2022-07-06T01:35:07;98291.34;;;13.89;87.19
71662;BME280;59500;49.588;18.018;2022-07-06T01:37:34;98279.63;;;13.90;87.27
71662;BME280;59500;49.588;18.018;2022-07-06T01:40:02;98290.69;;;13.86;86.27
71662;BME280;59500;49.588;18.018;2022-07-06T01:42:29;98285.16;;;13.88;86.58
71662;BME280;59500;49.588;18.018;2022-07-06T01:44:55;98283.66;;;13.85;87.08
71662;BME280;59500;49.588;18.018;2022-07-06T01:47:21;98282.84;;;13.85;86.58
71662;BME280;59500;49.588;18.018;2022-07-06T01:49:47;98280.19;;;13.85;86.92
71662;BME280;59500;49.588;18.018;2022-07-06T01:52:13;98273.19;;;13.84;87.32
71662;BME280;59500;49.588;18.018;2022-07-06T01:54:39;98278.53;;;13.84;86.65
71662;BME280;59500;49.588;18.018;2022-07-06T01:57:05;98278.88;;;13.81;86.92
71662;BME280;59500;49.588;18.018;2022-07-06T01:59:31;98284.59;;;13.78;86.98
71662;BME280;59500;49.588;18.018;2022-07-06T02:01:57;98282.91;;;13.77;87.24
71662;BME280;59500;49.588;18.018;2022-07-06T02:04:22;98279.78;;;13.73;86.46
71662;BME280;59500;49.588;18.018;2022-07-06T02:06:49;98282.78;;;13.70;86.52
71662;BME280;59500;49.588;18.018;2022-07-06T02:09:14;98291.81;;;13.69;86.67
71662;BME280;59500;49.588;18.018;2022-07-06T02:11:40;98285.00;;;13.66;87.25
71662;BME280;59500;49.588;18.018;2022-07-06T02:14:06;98288.66;;;13.65;87.01
71662;BME280;59500;49.588;18.018;2022-07-06T02:16:32;98279.16;;;13.63;87.19
71662;BME280;59500;49.588;18.018;2022-07-06T02:18:58;98289.41;;;13.59;86.66
71662;BME280;59500;49.588;18.018;2022-07-06T02:21:24;98285.06;;;13.58;87.04
71662;BME280;59500;49.588;18.018;2022-07-06T02:23:49;98289.31;;;13.44;85.96
71662;BME280;59500;49.588;18.018;2022-07-06T02:26:15;98295.19;;;13.40;86.27
71662;BME280;59500;49.588;18.018;2022-07-06T02:28:41;98295.38;;;13.38;85.56
71662;BME280;59500;49.588;18.018;2022-07-06T02:31:07;98293.22;;;13.34;85.36
71662;BME280;59500;49.588;18.018;2022-07-06T02:33:33;98292.41;;;13.33;85.24
71662;BME280;59500;49.588;18.018;2022-07-06T02:35:59;98298.06;;;13.30;85.53
71662;BME280;59500;49.588;18.018;2022-07-06T02:38:24;98300.94;;;13.29;86.36
71662;BME280;59500;49.588;18.018;2022-07-06T02:40:50;98304.28;;;13.31;86.46
71662;BME280;59500;49.588;18.018;2022-07-06T02:43:16;98306.09;;;13.30;86.33
71662;BME280;59500;49.588;18.018;2022-07-06T02:45:42;98310.25;;;13.33;86.31
71662;BME280;59500;49.588;18.018;2022-07-06T02:48:08;98310.06;;;13.26;86.94
71662;BME280;59500;49.588;18.018;2022-07-06T02:50:34;98314.78;;;13.24;86.67
71662;BME280;59500;49.588;18.018;2022-07-06T02:52:59;98318.94;;;13.27;86.53
71662;BME280;59500;49.588;18.018;2022-07-06T02:55:25;98315.13;;;13.29;86.98
71662;BME280;59500;49.588;18.018;2022-07-06T02:57:51;98307.94;;;13.30;86.01
71662;BME280;59500;49.588;18.018;2022-07-06T03:00:17;98316.59;;;13.23;85.50
71662;BME280;59500;49.588;18.018;2022-07-06T03:02:43;98324.44;;;13.25;85.30
71662;BME280;59500;49.588;18.018;2022-07-06T03:05:09;98324.97;;;13.29;85.47
71662;BME280;59500;49.588;18.018;2022-07-06T03:07:35;98324.25;;;13.35;85.31
71662;BME280;59500;49.588;18.018;2022-07-06T03:10:00;98324.91;;;13.37;85.33
71662;BME280;59500;49.588;18.018;2022-07-06T03:12:27;98336.25;;;13.39;85.56
71662;BME280;59500;49.588;18.018;2022-07-06T03:14:52;98335.72;;;13.43;86.10
71662;BME280;59500;49.588;18.018;2022-07-06T03:17:18;98336.06;;;13.49;85.15
71662;BME280;59500;49.588;18.018;2022-07-06T03:19:44;98334.72;;;13.53;85.66
71662;BME280;59500;49.588;18.018;2022-07-06T03:22:10;98342.19;;;13.57;85.14
71662;BME280;59500;49.588;18.018;2022-07-06T03:24:36;98336.78;;;13.65;84.88
71662;BME280;59500;49.588;18.018;2022-07-06T03:27:02;98334.88;;;13.74;84.87
71662;BME280;59500;49.588;18.018;2022-07-06T03:29:28;98338.50;;;13.81;84.75
71662;BME280;59500;49.588;18.018;2022-07-06T03:31:53;98344.28;;;13.93;85.63
71662;BME280;59500;49.588;18.018;2022-07-06T03:34:19;98345.53;;;14.05;84.96
71662;BME280;59500;49.588;18.018;2022-07-06T03:36:45;98345.47;;;14.14;84.54
71662;BME280;59500;49.588;18.018;2022-07-06T03:39:11;98351.09;;;14.19;84.45
71662;BME280;59500;49.588;18.018;2022-07-06T03:41:37;98344.09;;;14.18;83.45
71662;BME280;59500;49.588;18.018;2022-07-06T03:44:03;98345.63;;;14.12;83.12
71662;BME280;59500;49.588;18.018;2022-07-06T03:46:29;98346.00;;;14.09;82.99
71662;BME280;59500;49.588;18.018;2022-07-06T03:48:55;98339.72;;;14.02;82.70
71662;BME280;59500;49.588;18.018;2022-07-06T03:51:21;98337.22;;;14.00;83.50
71662;BME280;59500;49.588;18.018;2022-07-06T03:53:47;98340.41;;;14.57;83.16
71662;BME280;59500;49.588;18.018;2022-07-06T03:56:13;98334.41;;;15.29;81.85
71662;BME280;59500;49.588;18.018;2022-07-06T03:58:38;98339.78;;;16.02;79.60
71662;BME280;59500;49.588;18.018;2022-07-06T04:01:04;98343.84;;;16.69;77.37
71662;BME280;59500;49.588;18.018;2022-07-06T04:03:30;98341.50;;;17.22;75.29
71662;BME280;59500;49.588;18.018;2022-07-06T04:05:56;98322.81;;;17.62;73.13
71662;BME280;59500;49.588;18.018;2022-07-06T04:08:21;98320.47;;;18.01;71.67
71662;BME280;59500;49.588;18.018;2022-07-06T04:10:47;98320.69;;;18.32;70.00
71662;BME280;59500;49.588;18.018;2022-07-06T04:13:13;98314.63;;;18.84;68.45
71662;BME280;59500;49.588;18.018;2022-07-06T04:15:39;98318.69;;;19.26;66.94
71662;BME280;59500;49.588;18.018;2022-07-06T04:18:05;98322.22;;;19.72;66.37
71662;BME280;59500;49.588;18.018;2022-07-06T04:20:31;98318.28;;;20.06;64.08
71662;BME280;59500;49.588;18.018;2022-07-06T04:22:57;98318.19;;;20.44;63.31
71662;BME280;59500;49.588;18.018;2022-07-06T04:25:23;98327.56;;;20.85;62.43
71662;BME280;59500;49.588;18.018;2022-07-06T04:27:49;98317.78;;;21.28;61.20
71662;BME280;59500;49.588;18.018;2022-07-06T04:30:14;98311.50;;;21.64;60.18
71662;BME280;59500;49.588;18.018;2022-07-06T04:32:41;98305.56;;;21.86;58.65
71662;BME280;59500;49.588;18.018;2022-07-06T04:35:07;98306.47;;;22.10;58.27
71662;BME280;59500;49.588;18.018;2022-07-06T04:37:33;98315.84;;;21.96;57.92
71662;BME280;59500;49.588;18.018;2022-07-06T04:39:59;98313.84;;;22.03;57.22
71662;BME280;59500;49.588;18.018;2022-07-06T04:42:25;98311.81;;;22.28;57.29
71662;BME280;59500;49.588;18.018;2022-07-06T04:44:51;98317.88;;;22.54;55.79
71662;BME280;59500;49.588;18.018;2022-07-06T04:47:17;98310.31;;;22.80;54.39
71662;BME280;59500;49.588;18.018;2022-07-06T04:49:43;98306.63;;;23.21;53.94
71662;BME280;59500;49.588;18.018;2022-07-06T04:52:09;98296.25;;;23.59;53.09
71662;BME280;59500;49.588;18.018;2022-07-06T04:54:35;98300.91;;;23.75;51.73
71662;BME280;59500;49.588;18.018;2022-07-06T04:57:01;98312.91;;;24.08;50.34
71662;BME280;59500;49.588;18.018;2022-07-06T04:59:27;98312.63;;;24.38;50.51
71662;BME280;59500;49.588;18.018;2022-07-06T05:01:53;98313.34;;;24.84;49.81
71662;BME280;59500;49.588;18.018;2022-07-06T05:04:19;98312.47;;;25.39;48.42
71662;BME280;59500;49.588;18.018;2022-07-06T05:06:46;98303.84;;;25.97;46.55
71662;BME280;59500;49.588;18.018;2022-07-06T05:09:13;98312.84;;;26.30;45.30
71662;BME280;59500;49.588;18.018;2022-07-06T05:11:39;98306.06;;;26.32;46.21
71662;BME280;59500;49.588;18.018;2022-07-06T05:14:05;98306.88;;;26.65;45.14
71662;BME280;59500;49.588;18.018;2022-07-06T05:16:32;98308.53;;;27.09;44.17
71662;BME280;59500;49.588;18.018;2022-07-06T05:18:59;98311.47;;;27.60;43.08
71662;BME280;59500;49.588;18.018;2022-07-06T05:21:24;98321.16;;;27.98;42.90
71662;BME280;59500;49.588;18.018;2022-07-06T05:23:51;98320.84;;;27.79;42.32
71662;BME280;59500;49.588;18.018;2022-07-06T05:26:17;98327.13;;;27.17;42.64
71662;BME280;59500;49.588;18.018;2022-07-06T05:28:42;98329.47;;;26.98;43.19
71662;BME280;59500;49.588;18.018;2022-07-06T05:31:09;98328.97;;;27.06;44.40
71662;BME280;59500;49.588;18.018;2022-07-06T05:33:34;98326.50;;;27.52;44.29
71662;BME280;59500;49.588;18.018;2022-07-06T05:36:00;98328.88;;;28.37;43.40
71662;BME280;59500;49.588;18.018;2022-07-06T05:38:26;98332.97;;;28.86;41.68
71662;BME280;59500;49.588;18.018;2022-07-06T05:40:52;98343.59;;;29.13;41.47
71662;BME280;59500;49.588;18.018;2022-07-06T05:43:18;98337.78;;;29.35;39.91
71662;BME280;59500;49.588;18.018;2022-07-06T05:45:44;98344.84;;;29.46;40.02
71662;BME280;59500;49.588;18.018;2022-07-06T05:48:10;98346.31;;;29.88;39.55
71662;BME280;59500;49.588;18.018;2022-07-06T05:50:35;98349.16;;;30.18;38.28
71662;BME280;59500;49.588;18.018;2022-07-06T05:53:04;98358.53;;;30.11;37.48
71662;BME280;59500;49.588;18.018;2022-07-06T05:55:30;98362.69;;;30.04;39.05
71662;BME280;59500;49.588;18.018;2022-07-06T05:57:56;98355.94;;;29.86;38.46
71662;BME280;59500;49.588;18.018;2022-07-06T06:00:24;98356.81;;;29.71;39.14
71662;BME280;59500;49.588;18.018;2022-07-06T06:02:51;98346.28;;;29.99;38.00
71662;BME280;59500;49.588;18.018;2022-07-06T06:05:17;98344.78;;;29.72;37.25
71662;BME280;59500;49.588;18.018;2022-07-06T06:07:44;98342.69;;;29.43;37.74
71662;BME280;59500;49.588;18.018;2022-07-06T06:10:12;98348.31;;;28.51;37.88
71662;BME280;59500;49.588;18.018;2022-07-06T06:12:39;98368.47;;;27.31;41.31
71662;BME280;59500;49.588;18.018;2022-07-06T06:15:07;98378.56;;;26.93;42.54
71662;BME280;59500;49.588;18.018;2022-07-06T06:17:33;98379.25;;;27.15;42.89
71662;BME280;59500;49.588;18.018;2022-07-06T06:20:00;98383.84;;;27.04;43.06
71662;BME280;59500;49.588;18.018;2022-07-06T06:22:26;98385.03;;;26.49;44.20
71662;BME280;59500;49.588;18.018;2022-07-06T06:24:52;98392.56;;;25.44;46.45
71662;BME280;59500;49.588;18.018;2022-07-06T06:27:18;98387.31;;;24.64;47.66
71662;BME280;59500;49.588;18.018;2022-07-06T06:29:44;98390.16;;;24.12;49.43
71662;BME280;59500;49.588;18.018;2022-07-06T06:32:11;98403.03;;;24.16;50.01
71662;BME280;59500;49.588;18.018;2022-07-06T06:34:37;98403.53;;;24.30;50.16
71662;BME280;59500;49.588;18.018;2022-07-06T06:37:06;98406.97;;;24.09;51.22
71662;BME280;59500;49.588;18.018;2022-07-06T06:39:32;98393.22;;;23.87;52.53
71662;BME280;59500;49.588;18.018;2022-07-06T06:42:11;98405.84;;;23.41;52.92
71662;BME280;59500;49.588;18.018;2022-07-06T06:44:40;98412.00;;;22.47;53.19
71662;BME280;59500;49.588;18.018;2022-07-06T06:47:08;98415.47;;;21.75;55.13
71662;BME280;59500;49.588;18.018;2022-07-06T06:49:34;98408.97;;;20.77;56.37
71662;BME280;59500;49.588;18.018;2022-07-06T06:52:07;98410.97;;;19.93;59.58
71662;BME280;59500;49.588;18.018;2022-07-06T06:54:34;98421.31;;;19.38;61.66
71662;BME280;59500;49.588;18.018;2022-07-06T06:57:00;98412.25;;;19.12;63.18
71662;BME280;59500;49.588;18.018;2022-07-06T06:59:26;98410.81;;;19.03;63.85
71662;BME280;59500;49.588;18.018;2022-07-06T07:01:56;98411.44;;;19.05;64.50
71662;BME280;59500;49.588;18.018;2022-07-06T07:04:24;98420.13;;;19.07;64.01
71662;BME280;59500;49.588;18.018;2022-07-06T07:06:55;98416.38;;;19.21;63.89
71662;BME280;59500;49.588;18.018;2022-07-06T07:09:23;98409.50;;;19.32;63.86
71662;BME280;59500;49.588;18.018;2022-07-06T07:11:49;98421.94;;;19.47;63.97
71662;BME280;59500;49.588;18.018;2022-07-06T07:14:15;98416.72;;;19.52;63.44
71662;BME280;59500;49.588;18.018;2022-07-06T07:16:41;98420.22;;;19.52;63.66
71662;BME280;59500;49.588;18.018;2022-07-06T07:19:06;98419.00;;;19.48;62.79
71662;BME280;59500;49.588;18.018;2022-07-06T07:21:35;98421.53;;;19.36;63.96
71662;BME280;59500;49.588;18.018;2022-07-06T07:24:03;98430.28;;;19.18;63.39
71662;BME280;59500;49.588;18.018;2022-07-06T07:26:31;98431.56;;;19.02;63.73
71662;BME280;59500;49.588;18.018;2022-07-06T07:28:57;98448.56;;;18.96;63.66
71662;BME280;59500;49.588;18.018;2022-07-06T07:31:22;98456.81;;;18.75;63.61
71662;BME280;59500;49.588;18.018;2022-07-06T07:33:52;98462.00;;;18.76;62.71
71662;BME280;59500;49.588;18.018;2022-07-06T07:36:47;98459.16;;;18.78;63.72
71662;BME280;59500;49.588;18.018;2022-07-06T07:39:15;98462.41;;;18.67;63.17
71662;BME280;59500;49.588;18.018;2022-07-06T07:41:52;98471.13;;;18.55;63.60
71662;BME280;59500;49.588;18.018;2022-07-06T07:44:20;98477.31;;;18.43;64.58
71662;BME280;59500;49.588;18.018;2022-07-06T07:46:46;98483.66;;;18.22;64.30
71662;BME280;59500;49.588;18.018;2022-07-06T07:49:15;98477.19;;;18.03;64.48
71662;BME280;59500;49.588;18.018;2022-07-06T07:51:43;98486.00;;;17.83;64.67
71662;BME280;59500;49.588;18.018;2022-07-06T07:54:09;98486.34;;;17.73;65.35
71662;BME280;59500;49.588;18.018;2022-07-06T07:56:40;98487.97;;;17.68;66.80
71662;BME280;59500;49.588;18.018;2022-07-06T07:59:06;98488.94;;;17.53;66.80
71662;BME280;59500;49.588;18.018;2022-07-06T08:01:33;98469.00;;;17.41;67.59
71662;BME280;59500;49.588;18.018;2022-07-06T08:03:59;98473.88;;;17.31;67.84
71662;BME280;59500;49.588;18.018;2022-07-06T08:06:28;98470.13;;;17.25;68.05
71662;BME280;59500;49.588;18.018;2022-07-06T08:08:54;98468.38;;;17.11;68.04
71662;BME280;59500;49.588;18.018;2022-07-06T08:11:25;98465.44;;;17.06;68.57
71662;BME280;59500;49.588;18.018;2022-07-06T08:13:51;98465.59;;;16.98;68.40
71662;BME280;59500;49.588;18.018;2022-07-06T08:16:17;98462.47;;;16.94;68.52
71662;BME280;59500;49.588;18.018;2022-07-06T08:18:43;98461.00;;;16.91;69.23
71662;BME280;59500;49.588;18.018;2022-07-06T08:21:13;98462.72;;;16.99;70.32
71662;BME280;59500;49.588;18.018;2022-07-06T08:23:39;98470.00;;;17.05;70.57
71662;BME280;59500;49.588;18.018;2022-07-06T08:26:05;98471.88;;;17.05;70.90
71662;BME280;59500;49.588;18.018;2022-07-06T08:28:33;98464.56;;;16.99;70.06
71662;BME280;59500;49.588;18.018;2022-07-06T08:31:03;98453.00;;;16.76;70.08
71662;BME280;59500;49.588;18.018;2022-07-06T08:33:29;98453.72;;;16.64;70.69
71662;BME280;59500;49.588;18.018;2022-07-06T08:35:57;98466.91;;;16.59;71.75
71662;BME280;59500;49.588;18.018;2022-07-06T08:38:23;98461.63;;;16.72;72.19
71662;BME280;59500;49.588;18.018;2022-07-06T08:40:50;98471.34;;;16.73;70.49
71662;BME280;59500;49.588;18.018;2022-07-06T08:43:18;98475.38;;;16.62;70.83
71662;BME280;59500;49.588;18.018;2022-07-06T08:45:50;98481.22;;;16.66;71.29
71662;BME280;59500;49.588;18.018;2022-07-06T08:48:23;98489.38;;;16.79;71.91
71662;BME280;59500;49.588;18.018;2022-07-06T08:50:50;98502.56;;;16.95;72.08
71662;BME280;59500;49.588;18.018;2022-07-06T08:53:20;98511.59;;;17.09;72.37
71662;BME280;59500;49.588;18.018;2022-07-06T08:55:47;98521.16;;;17.19;71.27
71662;BME280;59500;49.588;18.018;2022-07-06T08:58:23;98525.31;;;17.21;72.36
71662;BME280;59500;49.588;18.018;2022-07-06T09:00:50;98542.91;;;17.24;72.92
71662;BME280;59500;49.588;18.018;2022-07-06T09:03:16;98550.31;;;17.22;73.04
71662;BME280;59500;49.588;18.018;2022-07-06T09:05:45;98537.88;;;17.14;71.89
71662;BME280;59500;49.588;18.018;2022-07-06T09:08:14;98533.47;;;17.06;71.80
71662;BME280;59500;49.588;18.018;2022-07-06T09:10:40;98538.84;;;17.06;71.42
71662;BME280;59500;49.588;18.018;2022-07-06T09:13:08;98531.47;;;17.15;72.11
71662;BME280;59500;49.588;18.018;2022-07-06T09:15:37;98536.72;;;17.23;72.35
71662;BME280;59500;49.588;18.018;2022-07-06T09:18:03;98539.25;;;17.31;72.54
71662;BME280;59500;49.588;18.018;2022-07-06T09:20:31;98527.06;;;17.35;71.79
71662;BME280;59500;49.588;18.018;2022-07-06T09:23:03;98517.13;;;17.29;71.62
71662;BME280;59500;49.588;18.018;2022-07-06T09:25:31;98517.16;;;17.36;72.02
71662;BME280;59500;49.588;18.018;2022-07-06T09:27:59;98523.63;;;17.48;70.51
71662;BME280;59500;49.588;18.018;2022-07-06T09:30:29;98518.16;;;17.63;70.02
71662;BME280;59500;49.588;18.018;2022-07-06T09:32:57;98533.63;;;17.83;70.55
71662;BME280;59500;49.588;18.018;2022-07-06T09:35:31;98530.56;;;17.99;71.13
71662;BME280;59500;49.588;18.018;2022-07-06T09:38:20;98502.69;;;18.07;72.30
71662;BME280;59500;49.588;18.018;2022-07-06T09:40:46;98503.91;;;18.11;71.91
71662;BME280;59500;49.588;18.018;2022-07-06T09:43:15;98494.00;;;18.11;71.97
71662;BME280;59500;49.588;18.018;2022-07-06T09:45:45;98481.16;;;18.07;71.52
71662;BME280;59500;49.588;18.018;2022-07-06T09:48:20;98484.69;;;18.20;72.28
71662;BME280;59500;49.588;18.018;2022-07-06T09:51:16;98464.44;;;18.31;72.01
71662;BME280;59500;49.588;18.018;2022-07-06T09:53:42;98473.16;;;18.47;72.33
71662;BME280;59500;49.588;18.018;2022-07-06T09:56:08;98471.94;;;18.69;72.44
71662;BME280;59500;49.588;18.018;2022-07-06T09:58:38;98471.13;;;18.69;71.60
71662;BME280;59500;49.588;18.018;2022-07-06T10:01:03;98470.50;;;18.60;71.40
71662;BME280;59500;49.588;18.018;2022-07-06T10:03:33;98471.94;;;18.56;71.46
71662;BME280;59500;49.588;18.018;2022-07-06T10:06:05;98473.56;;;18.50;70.90
71662;BME280;59500;49.588;18.018;2022-07-06T10:12:12;98495.00;;;18.78;72.91
71662;BME280;59500;49.588;18.018;2022-07-06T10:14:44;98490.22;;;19.00;71.34
71662;BME280;59500;49.588;18.018;2022-07-06T10:17:32;98493.75;;;19.21;70.39
71662;BME280;59500;49.588;18.018;2022-07-06T10:20:22;98485.44;;;19.42;69.05
71662;BME280;59500;49.588;18.018;2022-07-06T10:22:49;98485.38;;;19.76;69.04
71662;BME280;59500;49.588;18.018;2022-07-06T10:25:18;98483.00;;;19.99;67.58
71662;BME280;59500;49.588;18.018;2022-07-06T10:27:47;98484.81;;;20.51;67.00
71662;BME280;59500;49.588;18.018;2022-07-06T10:30:16;98490.19;;;20.89;64.15
71662;BME280;59500;49.588;18.018;2022-07-06T10:32:45;98498.72;;;21.36;64.27
71662;BME280;59500;49.588;18.018;2022-07-06T10:35:16;98496.66;;;21.94;61.22
71662;BME280;59500;49.588;18.018;2022-07-06T10:37:46;98493.19;;;22.05;58.29
71662;BME280;59500;49.588;18.018;2022-07-06T10:40:34;98481.63;;;22.16;57.52
71662;BME280;59500;49.588;18.018;2022-07-06T10:43:01;98485.88;;;22.42;57.98
71662;BME280;59500;49.588;18.018;2022-07-06T10:50:42;98479.00;;;22.28;57.79
71662;BME280;59500;49.588;18.018;2022-07-06T10:53:13;98485.00;;;22.30;59.55
71662;BME280;59500;49.588;18.018;2022-07-06T10:55:43;98481.22;;;22.31;59.28
71662;BME280;59500;49.588;18.018;2022-07-06T10:58:45;98481.38;;;22.18;56.73
71662;BME280;59500;49.588;18.018;2022-07-06T11:01:13;98474.22;;;22.53;58.73
71662;BME280;59500;49.588;18.018;2022-07-06T11:03:42;98469.31;;;23.16;57.23
71662;BME280;59500;49.588;18.018;2022-07-06T11:08:56;98468.63;;;23.21;53.89
71662;BME280;59500;49.588;18.018;2022-07-06T11:14:09;98471.66;;;23.24;54.22
71662;BME280;59500;49.588;18.018;2022-07-06T11:16:58;98474.56;;;22.99;54.53
71662;BME280;59500;49.588;18.018;2022-07-06T11:19:28;98480.22;;;22.44;56.60
71662;BME280;59500;49.588;18.018;2022-07-06T11:22:06;98478.47;;;22.01;57.56
71662;BME280;59500;49.588;18.018;2022-07-06T11:24:34;98474.44;;;21.73;56.99
71662;BME280;59500;49.588;18.018;2022-07-06T11:27:01;98483.31;;;21.62;59.79
71662;BME280;59500;49.588;18.018;2022-07-06T11:29:29;98474.56;;;21.60;61.25
71662;BME280;59500;49.588;18.018;2022-07-06T11:32:01;98477.75;;;21.57;60.91
71662;BME280;59500;49.588;18.018;2022-07-06T11:34:31;98478.56;;;21.57;61.86
71662;BME280;59500;49.588;18.018;2022-07-06T11:37:13;98483.91;;;21.82;60.59
71662;BME280;59500;49.588;18.018;2022-07-06T11:39:41;98473.75;;;22.99;60.02
71662;BME280;59500;49.588;18.018;2022-07-06T11:42:09;98471.34;;;24.37;54.47
71662;BME280;59500;49.588;18.018;2022-07-06T11:44:36;98469.84;;;25.59;49.57
71662;BME280;59500;49.588;18.018;2022-07-06T11:47:09;98473.19;;;26.06;49.16
71662;BME280;59500;49.588;18.018;2022-07-06T11:49:38;98463.97;;;26.61;46.58
71662;BME280;59500;49.588;18.018;2022-07-06T11:52:30;98463.97;;;26.88;44.54
71662;BME280;59500;49.588;18.018;2022-07-06T11:55:01;98469.59;;;27.09;43.06
71662;BME280;59500;49.588;18.018;2022-07-06T11:57:32;98478.63;;;27.14;44.20
71662;BME280;59500;49.588;18.018;2022-07-06T11:59:58;98466.50;;;27.00;41.83
71662;BME280;59500;49.588;18.018;2022-07-06T12:02:24;98462.84;;;26.84;41.60
71662;BME280;59500;49.588;18.018;2022-07-06T12:04:50;98467.16;;;27.12;40.57
71662;BME280;59500;49.588;18.018;2022-07-06T12:07:17;98458.00;;;27.29;40.85
71662;BME280;59500;49.588;18.018;2022-07-06T12:09:46;98457.38;;;27.59;41.29
71662;BME280;59500;49.588;18.018;2022-07-06T12:12:14;98464.91;;;27.89;40.05
71662;BME280;59500;49.588;18.018;2022-07-06T12:14:43;98449.34;;;27.90;39.24
71662;BME280;59500;49.588;18.018;2022-07-06T12:17:11;98450.03;;;27.64;38.00
71662;BME280;59500;49.588;18.018;2022-07-06T12:19:40;98447.75;;;27.46;38.83
71662;BME280;59500;49.588;18.018;2022-07-06T12:22:09;98446.03;;;27.35;40.96
71662;BME280;59500;49.588;18.018;2022-07-06T12:24:41;98449.03;;;27.01;39.60
71662;BME280;59500;49.588;18.018;2022-07-06T12:27:16;98454.22;;;27.35;41.24
71662;BME280;59500;49.588;18.018;2022-07-06T12:29:43;98450.25;;;27.53;38.38
71662;BME280;59500;49.588;18.018;2022-07-06T12:32:20;98448.69;;;27.24;38.04
71662;BME280;59500;49.588;18.018;2022-07-06T12:35:03;98447.25;;;27.54;40.85
71662;BME280;59500;49.588;18.018;2022-07-06T12:37:29;98440.72;;;27.60;36.63
71662;BME280;59500;49.588;18.018;2022-07-06T12:39:55;98441.34;;;27.78;38.67
71662;BME280;59500;49.588;18.018;2022-07-06T12:42:21;98437.22;;;27.28;38.85
71662;BME280;59500;49.588;18.018;2022-07-06T12:44:50;98437.84;;;26.65;38.83
71662;BME280;59500;49.588;18.018;2022-07-06T12:47:23;98451.47;;;25.72;40.66
71662;BME280;59500;49.588;18.018;2022-07-06T12:50:05;98444.00;;;25.23;42.04
71662;BME280;59500;49.588;18.018;2022-07-06T12:52:34;98452.25;;;24.94;42.99
71662;BME280;59500;49.588;18.018;2022-07-06T12:55:04;98440.44;;;24.55;42.73
71662;BME280;59500;49.588;18.018;2022-07-06T12:57:46;98435.25;;;24.42;43.36
71662;BME280;59500;49.588;18.018;2022-07-06T13:00:17;98436.34;;;24.41;44.10
71662;BME280;59500;49.588;18.018;2022-07-06T13:02:49;98436.34;;;24.12;44.44
71662;BME280;59500;49.588;18.018;2022-07-06T13:05:16;98424.66;;;23.83;45.99
71662;BME280;59500;49.588;18.018;2022-07-06T13:07:47;98425.13;;;23.80;46.66
71662;BME280;59500;49.588;18.018;2022-07-06T13:10:15;98423.94;;;24.16;50.59